KPAE/PAE METAR and TAF weather

Enter ICAO airport designator
Station Type Date Time Source
KPAE METAR 2020/12/06 00:53 UTC NOAA

KPAE 060053Z 15006KT 10SM CLR 12/00 A3004 RMK AO2 SLP175 T01220000


Station Type Date Time Source
KPAE Decoded METAR 2020/12/06 00:53 UTC NOAA

EVERETT SNOHOMISH COUNTY, WA, United States (KPAE) 47-55N 122-17W 180M
Dec 05, 2020 - 07:53 PM EST / 2020.12.06 0053 UTC
Wind: from the SSE (150 degrees) at 7 MPH (6 KT):0
Visibility: 10 mile(s):0
Sky conditions: clear
Temperature: 54.0 F (12.2 C)
Dew Point: 32.0 F (0.0 C)
Relative Humidity: 43%
Pressure (altimeter): 30.04 in. Hg (1017 hPa)
ob: KPAE 060053Z 15006KT 10SM CLR 12/00 A3004 RMK AO2 SLP175 T01220000
cycle: 1

Station Type Date Time Source
KPAE TAF 2020/12/05 18:24 UTC NOAA

TAF KPAE 051720Z 0518/0618 17004KT P6SM SCT250
FM060200 15014KT P6SM SCT100 OVC200
FM060800 15014KT P6SM -RA BKN040 OVC060
FM061400 17008KT P6SM OVC015

Example: see airport list